Time;durP1;ratioP1;P1;durP2;ratioP2;P2;SDS_P1;SDS_P2;PMS_P1;PMS_P2;Temp;Humidity;BMP_temperature;BMP_pressure;BME280_temperature;BME280_humidity;BME280_pressure;Samples;Min_cycle;Max_cycle;Signal;HPM_P1;HPM_P2
2022/03/31 00:00:42;;;;;;;14.70;5.47;;;;;;;16.12;nan;93982.56;5063465;28;20244;-69
2022/03/31 00:03:13;;;;;;;17.65;4.65;;;;;;;16.39;nan;93981.47;5065912;28;20209;-69
2022/03/31 00:05:40;;;;;;;17.75;6.05;;;;;;;16.13;nan;93984.19;5062410;28;20222;-69
2022/03/31 00:08:10;;;;;;;16.92;4.75;;;;;;;16.20;nan;93980.25;5064864;28;20738;-71
2022/03/31 00:10:39;;;;;;;12.52;4.32;;;;;;;16.43;nan;93977.75;5062778;28;20213;-70
2022/03/31 00:13:07;;;;;;;22.63;4.93;;;;;;;16.71;nan;93974.81;5063123;28;20673;-70
2022/03/31 00:15:34;;;;;;;18.98;4.93;;;;;;;16.63;nan;93979.66;5061296;28;20225;-70
2022/03/31 00:18:02;;;;;;;19.73;5.90;;;;;;;16.25;nan;93995.31;5061158;28;20205;-69
2022/03/31 00:20:30;;;;;;;15.00;6.05;;;;;;;16.16;nan;93994.22;5063413;28;20298;-69
2022/03/31 00:22:57;;;;;;;13.55;5.28;;;;;;;16.08;nan;93988.84;5061345;28;20260;-70
2022/03/31 00:25:26;;;;;;;15.40;5.50;;;;;;;16.10;nan;94004.09;5061234;28;20971;-69
2022/03/31 00:27:53;;;;;;;10.82;5.53;;;;;;;16.16;nan;93994.22;5063985;28;20206;-70
2022/03/31 00:30:20;;;;;;;17.48;4.97;;;;;;;16.10;nan;93986.97;5063500;28;20232;-71
2022/03/31 00:32:47;;;;;;;15.07;5.68;;;;;;;15.80;nan;93978.94;5063513;28;20581;-70
2022/03/31 00:35:14;;;;;;;18.45;5.38;;;;;;;15.76;nan;93973.19;5061175;28;20206;-70
2022/03/31 00:40:25;;;;;;;19.00;6.22;;;;;;;16.11;nan;93952.72;5059438;28;20658;-70
2022/03/31 00:42:54;;;;;;;12.90;4.40;;;;;;;15.79;nan;93946.56;5061170;28;20263;-71
2022/03/31 00:45:23;;;;;;;12.55;4.75;;;;;;;15.61;nan;93948.66;5059303;28;20210;-71
2022/03/31 00:47:51;;;;;;;26.30;5.47;;;;;;;15.62;nan;93953.69;5065024;28;20387;-72
2022/03/31 00:50:17;;;;;;;14.13;4.78;;;;;;;15.67;nan;93955.91;5064765;28;20198;-71
2022/03/31 00:52:46;;;;;;;15.65;5.05;;;;;;;15.78;nan;93965.41;5065673;28;20206;-71
2022/03/31 00:55:14;;;;;;;15.27;4.32;;;;;;;15.89;nan;93968.81;5063955;28;20230;-70
2022/03/31 00:57:43;;;;;;;21.60;4.90;;;;;;;16.00;nan;93975.75;5064997;28;20194;-70
2022/03/31 01:00:14;;;;;;;11.50;5.72;;;;;;;16.05;nan;93967.75;5064704;28;20201;-70
2022/03/31 01:02:43;;;;;;;17.27;4.78;;;;;;;16.05;nan;93963.44;5065745;28;20200;-70
2022/03/31 01:05:11;;;;;;;13.93;5.03;;;;;;;16.12;nan;93948.41;5061398;28;20225;-70
2022/03/31 01:07:40;;;;;;;13.77;5.20;;;;;;;15.79;nan;93951.69;5062297;28;20239;-70
2022/03/31 01:10:10;;;;;;;13.23;5.55;;;;;;;15.73;nan;93954.66;5064249;28;20206;-69
2022/03/31 01:12:37;;;;;;;21.85;6.28;;;;;;;15.65;nan;93945.78;5062723;28;20254;-70
2022/03/31 01:15:09;;;;;;;12.95;4.20;;;;;;;15.67;nan;93942.28;5058824;28;20237;-70
2022/03/31 01:17:37;;;;;;;18.75;5.07;;;;;;;15.47;nan;93936.00;5062368;28;20205;-72
2022/03/31 01:20:07;;;;;;;15.80;5.50;;;;;;;15.47;nan;93936.81;5062081;28;20198;-72
2022/03/31 01:22:34;;;;;;;15.05;4.43;;;;;;;15.62;nan;93929.81;5063889;28;20721;-71
2022/03/31 01:25:05;;;;;;;18.30;4.55;;;;;;;15.55;nan;93937.09;5063362;28;20253;-72
2022/03/31 01:27:33;;;;;;;13.30;4.72;;;;;;;15.38;nan;93926.38;5064571;28;20201;-71
2022/03/31 01:30:00;;;;;;;11.75;5.32;;;;;;;15.23;nan;93938.53;5063719;28;20209;-71
2022/03/31 01:32:27;;;;;;;16.77;3.95;;;;;;;15.47;nan;93936.00;5063835;28;20201;-71
2022/03/31 01:34:54;;;;;;;15.15;5.88;;;;;;;15.56;nan;93948.19;5062175;28;20201;-72
2022/03/31 01:37:21;;;;;;;20.58;5.28;;;;;;;15.54;nan;93938.03;5064250;28;20198;-71
2022/03/31 01:39:47;;;;;;;8.23;4.93;;;;;;;15.09;nan;93946.34;5061132;28;20705;-70
2022/03/31 01:42:16;;;;;;;10.88;4.75;;;;;;;15.27;nan;93958.69;5064875;28;20225;-70
2022/03/31 01:44:43;;;;;;;20.60;4.88;;;;;;;14.96;nan;93931.81;5063960;28;20668;-70
2022/03/31 01:47:09;;;;;;;15.38;5.28;;;;;;;15.03;nan;93937.34;5062253;28;20206;-70
2022/03/31 01:49:38;;;;;;;23.58;6.50;;;;;;;15.12;nan;93936.69;5063330;28;20197;-70
2022/03/31 01:52:06;;;;;;;18.25;5.25;;;;;;;15.24;nan;93956.34;5059895;28;20209;-71
2022/03/31 01:54:34;;;;;;;16.20;5.47;;;;;;;15.06;nan;93951.69;5059670;28;20206;-72
2022/03/31 01:57:00;;;;;;;19.33;4.68;;;;;;;15.12;nan;93954.59;5059882;28;20940;-71
2022/03/31 01:59:34;;;;;;;16.23;4.28;;;;;;;14.98;nan;93926.59;5056993;28;20290;-71
2022/03/31 02:02:01;;;;;;;10.65;4.95;;;;;;;14.98;nan;93931.72;5062925;28;20724;-70
2022/03/31 02:04:28;;;;;;;12.75;4.70;;;;;;;14.98;nan;93919.75;5059959;28;20306;-71
2022/03/31 02:06:55;;;;;;;13.90;5.03;;;;;;;15.02;nan;93925.47;5063710;28;20278;-71
2022/03/31 02:09:22;;;;;;;22.75;5.75;;;;;;;15.07;nan;93933.66;5063348;28;20689;-69
2022/03/31 02:11:48;;;;;;;18.38;5.50;;;;;;;15.14;nan;93932.28;5062713;28;20722;-72
2022/03/31 02:14:16;;;;;;;10.77;4.60;;;;;;;14.89;nan;93922.09;5063638;28;20255;-71
2022/03/31 02:16:45;;;;;;;19.67;5.88;;;;;;;15.03;nan;93923.75;5058899;28;20631;-71
2022/03/31 02:19:14;;;;;;;21.77;5.47;;;;;;;15.05;nan;93903.97;5056054;28;20469;-71
2022/03/31 02:21:41;;;;;;;12.95;5.20;;;;;;;15.13;nan;93899.13;5060561;28;20245;-72
2022/03/31 02:24:09;;;;;;;16.60;6.82;;;;;;;15.08;nan;93898.66;5057447;28;20209;-71
2022/03/31 02:26:36;;;;;;;20.05;5.85;;;;;;;15.08;nan;93903.78;5060058;28;20304;-71
2022/03/31 02:29:04;;;;;;;12.70;5.30;;;;;;;15.02;nan;93914.44;5059179;28;20205;-72
2022/03/31 02:31:31;;;;;;;12.50;5.50;;;;;;;14.95;nan;93904.59;5058105;28;20780;-71
2022/03/31 02:33:59;;;;;;;14.20;5.97;;;;;;;14.87;nan;93900.94;5063671;28;20616;-71
2022/03/31 02:36:27;;;;;;;16.48;5.32;;;;;;;14.96;nan;93911.38;5062690;28;20190;-70
2022/03/31 02:38:54;;;;;;;15.38;5.07;;;;;;;14.80;nan;93900.56;5061171;28;20586;-71
2022/03/31 02:41:21;;;;;;;18.52;4.90;;;;;;;14.73;nan;93914.69;5063561;28;20346;-70
2022/03/31 02:43:48;;;;;;;13.57;5.05;;;;;;;14.68;nan;93921.84;5065723;28;21666;-72
2022/03/31 02:46:14;;;;;;;19.98;4.93;;;;;;;14.67;nan;93909.16;5066062;28;20225;-69
2022/03/31 02:48:41;;;;;;;17.98;4.50;;;;;;;14.93;nan;93903.06;5063245;28;20202;-71
2022/03/31 02:51:09;;;;;;;15.55;4.97;;;;;;;14.89;nan;93915.25;5066890;28;20282;-71
2022/03/31 02:56:20;;;;;;;14.38;5.63;;;;;;;14.82;nan;93913.25;5063622;28;20723;-71
2022/03/31 02:58:47;;;;;;;21.58;4.82;;;;;;;14.73;nan;93899.34;5064493;28;20205;-71
2022/03/31 03:01:13;;;;;;;21.50;4.40;;;;;;;14.47;nan;93905.38;5066462;28;20314;-71
2022/03/31 03:03:40;;;;;;;15.85;4.53;;;;;;;14.70;nan;93908.94;5067815;28;20228;-72
2022/03/31 03:06:09;;;;;;;19.30;4.85;;;;;;;14.58;nan;93902.94;5066773;28;20656;-71
2022/03/31 03:08:36;;;;;;;9.88;4.07;;;;;;;14.71;nan;93913.97;5066974;28;20209;-70
2022/03/31 03:11:03;;;;;;;18.13;5.60;;;;;;;14.67;nan;93911.69;5066079;28;20232;-70
2022/03/31 03:13:30;;;;;;;17.70;4.45;;;;;;;14.51;nan;93906.81;5067056;28;21793;-71
2022/03/31 03:15:56;;;;;;;13.13;4.93;;;;;;;14.52;nan;93913.56;5066233;28;20729;-71
2022/03/31 03:18:23;;;;;;;15.35;5.85;;;;;;;14.53;nan;93917.75;5067722;28;20662;-71
2022/03/31 03:20:50;;;;;;;15.07;5.38;;;;;;;14.58;nan;93926.75;5066840;28;20303;-71
2022/03/31 03:23:18;;;;;;;9.88;5.18;;;;;;;14.56;nan;93917.56;5067220;28;20651;-73
2022/03/31 03:25:44;;;;;;;14.95;5.07;;;;;;;14.64;nan;93905.88;5065302;28;20205;-71
2022/03/31 03:28:11;;;;;;;11.45;4.38;;;;;;;14.61;nan;93915.50;5066507;28;20259;-71
2022/03/31 03:30:38;;;;;;;19.65;5.40;;;;;;;14.40;nan;93907.50;5066368;28;20211;-71
2022/03/31 03:33:05;;;;;;;13.88;4.95;;;;;;;14.33;nan;93902.91;5067420;28;20204;-70
2022/03/31 03:35:32;;;;;;;14.85;4.90;;;;;;;14.28;nan;93913.44;5066632;28;20733;-70
2022/03/31 03:37:59;;;;;;;18.20;5.10;;;;;;;14.16;nan;93893.78;5067680;28;20744;-72
2022/03/31 03:40:29;;;;;;;13.15;4.97;;;;;;;13.93;nan;93885.06;5066752;28;20194;-72
2022/03/31 03:42:56;;;;;;;14.63;6.13;;;;;;;14.04;nan;93895.44;5068222;28;20606;-71
2022/03/31 03:45:23;;;;;;;9.82;5.63;;;;;;;14.34;nan;93886.66;5066562;28;20221;-72
2022/03/31 03:47:50;;;;;;;14.75;5.93;;;;;;;14.15;nan;93890.41;5067519;28;21182;-71
2022/03/31 03:50:17;;;;;;;16.20;6.15;;;;;;;14.14;nan;93886.22;5067406;28;20202;-71
2022/03/31 03:52:44;;;;;;;13.32;5.53;;;;;;;14.16;nan;93879.28;5067443;28;20281;-70
2022/03/31 03:55:12;;;;;;;17.45;5.38;;;;;;;14.21;nan;93864.47;5067486;28;20694;-72
2022/03/31 03:57:41;;;;;;;19.25;5.35;;;;;;;14.08;nan;93881.53;5067195;28;20206;-70
2022/03/31 04:00:09;;;;;;;14.35;6.80;;;;;;;14.24;nan;93877.03;5067533;28;20193;-71
2022/03/31 04:02:36;;;;;;;15.90;5.70;;;;;;;13.95;nan;93901.13;5066758;28;20261;-71
2022/03/31 04:05:04;;;;;;;11.43;4.95;;;;;;;13.95;nan;93880.69;5067828;28;20217;-70
2022/03/31 04:07:31;;;;;;;15.25;5.63;;;;;;;13.98;nan;93870.28;5066485;28;20894;-71
2022/03/31 04:09:58;;;;;;;16.73;4.93;;;;;;;14.02;nan;93892.16;5068009;28;20202;-71
2022/03/31 04:12:25;;;;;;;9.93;4.70;;;;;;;14.17;nan;93895.44;5067992;28;20226;-70
2022/03/31 04:14:53;;;;;;;12.20;5.88;;;;;;;14.04;nan;93890.31;5067439;28;20638;-71
2022/03/31 04:17:20;;;;;;;13.27;8.18;;;;;;;14.16;nan;93904.81;5066486;28;20656;-71
2022/03/31 04:19:47;;;;;;;20.67;8.63;;;;;;;13.79;nan;93920.91;5066731;28;20523;-71
2022/03/31 04:22:13;;;;;;;14.13;6.00;;;;;;;13.68;nan;93898.59;5066346;28;20285;-71
2022/03/31 04:24:40;;;;;;;14.15;5.72;;;;;;;13.64;nan;93902.28;5067234;28;20206;-72
2022/03/31 04:27:07;;;;;;;15.35;5.20;;;;;;;13.77;nan;93903.13;5066681;28;20741;-71
2022/03/31 04:29:34;;;;;;;14.77;5.25;;;;;;;13.70;nan;93912.09;5067251;28;20202;-71
2022/03/31 04:32:02;;;;;;;10.85;6.25;;;;;;;13.59;nan;93910.25;5066806;28;20641;-71
2022/03/31 04:34:30;;;;;;;19.60;5.38;;;;;;;13.65;nan;93919.22;5066992;28;20210;-70
2022/03/31 04:36:56;;;;;;;12.70;5.63;;;;;;;13.74;nan;93913.53;5065467;28;20229;-70
2022/03/31 04:39:23;;;;;;;12.75;5.50;;;;;;;13.94;nan;93925.03;5067030;28;20210;-72
2022/03/31 04:41:50;;;;;;;22.02;5.75;;;;;;;13.89;nan;93904.88;5065732;28;20706;-70
2022/03/31 04:44:17;;;;;;;9.40;5.28;;;;;;;13.69;nan;93912.19;5067167;28;20613;-70
2022/03/31 04:46:45;;;;;;;15.50;5.93;;;;;;;13.86;nan;93917.84;5066344;28;20202;-71
2022/03/31 04:49:13;;;;;;;15.90;5.78;;;;;;;14.16;nan;93904.81;5065892;28;20586;-71
2022/03/31 04:51:40;;;;;;;18.60;5.13;;;;;;;14.03;nan;93908.28;5065346;28;20198;-70
2022/03/31 04:54:07;;;;;;;21.45;5.88;;;;;;;14.12;nan;93918.72;5066859;28;20198;-70
2022/03/31 04:56:34;;;;;;;12.05;5.53;;;;;;;14.01;nan;93926.28;5065220;28;20198;-70
2022/03/31 04:59:01;;;;;;;11.70;5.15;;;;;;;14.18;nan;93928.53;5066216;28;20271;-71
2022/03/31 05:01:28;;;;;;;21.38;5.65;;;;;;;14.03;nan;93927.00;5063786;28;20275;-70
2022/03/31 05:03:54;;;;;;;12.75;4.88;;;;;;;14.00;nan;93924.63;5065670;28;20229;-70
2022/03/31 05:06:23;;;;;;;18.92;5.38;;;;;;;13.86;nan;93933.16;5065397;28;20788;-71
2022/03/31 05:08:50;;;;;;;17.05;5.65;;;;;;;13.87;nan;93908.44;5065600;28;20212;-71
2022/03/31 05:11:17;;;;;;;13.02;5.65;;;;;;;13.70;nan;93911.28;5065794;28;20220;-72
2022/03/31 05:13:44;;;;;;;21.00;6.43;;;;;;;13.59;nan;93894.94;5064894;28;20202;-70
2022/03/31 05:16:11;;;;;;;12.80;5.18;;;;;;;13.78;nan;93893.75;5063741;28;20197;-71
2022/03/31 05:18:38;;;;;;;23.08;6.20;;;;;;;13.77;nan;93884.44;5065893;28;20225;-71
2022/03/31 05:21:05;;;;;;;22.23;6.47;;;;;;;13.58;nan;93888.19;5065699;28;20330;-73
2022/03/31 05:23:33;;;;;;;18.00;5.30;;;;;;;13.76;nan;93890.47;5066051;28;20237;-71
2022/03/31 05:26:00;;;;;;;17.10;5.47;;;;;;;14.04;nan;93904.81;5065160;28;20598;-71
2022/03/31 05:28:27;;;;;;;18.98;5.55;;;;;;;13.82;nan;93933.50;5064893;28;20318;-71
2022/03/31 05:30:54;;;;;;;14.70;5.35;;;;;;;13.77;nan;93935.50;5063908;28;20198;-72
2022/03/31 05:33:21;;;;;;;18.90;5.90;;;;;;;13.75;nan;93945.81;5065413;28;20296;-70
2022/03/31 05:35:47;;;;;;;18.48;7.25;;;;;;;14.00;nan;93944.25;5065355;28;20205;-70
2022/03/31 05:38:14;;;;;;;19.20;6.18;;;;;;;14.14;nan;93956.94;5065205;28;20205;-71
2022/03/31 05:40:43;;;;;;;20.23;6.57;;;;;;;14.08;nan;93950.50;5064755;28;20784;-71
2022/03/31 05:43:09;;;;;;;19.08;5.85;;;;;;;14.10;nan;93946.13;5064930;28;20262;-71
2022/03/31 05:45:36;;;;;;;15.57;6.60;;;;;;;14.08;nan;93940.28;5064018;28;20198;-70
2022/03/31 05:48:04;;;;;;;19.88;6.18;;;;;;;13.91;nan;93951.56;5065635;28;20587;-71
2022/03/31 05:50:30;;;;;;;13.32;6.25;;;;;;;13.98;nan;93946.91;5065451;28;20206;-71
2022/03/31 05:52:57;;;;;;;15.63;6.78;;;;;;;13.94;nan;93945.47;5065519;28;20222;-71
2022/03/31 05:55:24;;;;;;;23.25;5.75;;;;;;;13.90;nan;93928.69;5065334;28;20277;-70
2022/03/31 05:57:53;;;;;;;26.30;7.45;;;;;;;14.12;nan;93925.56;5065772;28;20189;-70
2022/03/31 06:00:21;;;;;;;15.68;6.13;;;;;;;14.26;nan;93921.19;5064377;28;20254;-70
2022/03/31 06:02:49;;;;;;;16.30;6.70;;;;;;;14.08;nan;93907.09;5066095;28;20232;-71
2022/03/31 06:05:16;;;;;;;22.48;5.57;;;;;;;14.09;nan;93888.28;5065034;28;20224;-71
2022/03/31 06:07:43;;;;;;;20.30;6.18;;;;;;;14.33;nan;93885.03;5065200;28;20194;-70
2022/03/31 06:10:10;;;;;;;19.20;6.30;;;;;;;14.46;nan;93870.50;5062926;28;20265;-71
2022/03/31 06:12:37;;;;;;;19.98;6.90;;;;;;;14.64;nan;93869.25;5064705;28;20205;-71
2022/03/31 06:15:07;;;;;;;31.38;8.77;;;;;;;14.59;nan;93867.03;5064748;28;20653;-71
2022/03/31 06:17:35;;;;;;;34.78;8.93;;;;;;;14.64;nan;93846.25;5065921;28;20646;-72
2022/03/31 06:20:01;;;;;;;27.38;6.45;;;;;;;14.53;nan;93848.75;5064498;28;20287;-71
2022/03/31 06:22:28;;;;;;;31.17;7.47;;;;;;;14.70;nan;93863.72;5064970;28;20244;-71
2022/03/31 06:24:55;;;;;;;20.27;6.57;;;;;;;14.75;nan;93879.59;5064155;28;20361;-72
2022/03/31 06:27:22;;;;;;;23.23;6.03;;;;;;;14.66;nan;93885.31;5065652;28;20294;-71
2022/03/31 06:29:49;;;;;;;31.92;7.65;;;;;;;14.49;nan;93921.44;5064274;28;20197;-71
2022/03/31 06:32:17;;;;;;;25.60;9.82;;;;;;;14.68;nan;93937.16;5065015;28;20205;-71
2022/03/31 06:34:44;;;;;;;25.95;7.60;;;;;;;14.87;nan;93947.78;5064719;28;20209;-71
2022/03/31 06:37:13;;;;;;;24.75;8.07;;;;;;;14.71;nan;93952.31;5065663;28;20290;-72
2022/03/31 06:39:39;;;;;;;33.80;9.45;;;;;;;14.43;nan;93948.22;5063641;28;22249;-71
2022/03/31 06:42:06;;;;;;;24.02;8.00;;;;;;;14.46;nan;93947.19;5065862;28;20722;-71
2022/03/31 06:44:33;;;;;;;22.50;8.70;;;;;;;14.34;nan;93958.22;5063382;28;20275;-71
2022/03/31 06:47:00;;;;;;;30.05;9.23;;;;;;;14.19;nan;93954.91;5065369;28;20205;-70
2022/03/31 06:49:28;;;;;;;30.05;8.35;;;;;;;14.45;nan;93941.28;5064229;28;20258;-71
2022/03/31 06:51:55;;;;;;;21.77;7.22;;;;;;;14.63;nan;93929.00;5064203;28;20260;-71
2022/03/31 06:54:22;;;;;;;23.02;8.40;;;;;;;14.37;nan;93928.13;5066378;28;20269;-71
2022/03/31 06:56:51;;;;;;;25.98;8.65;;;;;;;14.34;nan;93927.56;5064970;28;20212;-71
2022/03/31 06:59:20;;;;;;;20.02;7.75;;;;;;;14.25;nan;93923.84;5065555;28;20194;-71
2022/03/31 07:01:48;;;;;;;31.20;9.07;;;;;;;14.23;nan;93926.50;5064368;28;20202;-71
2022/03/31 07:04:14;;;;;;;28.85;9.80;;;;;;;14.21;nan;93923.22;5065261;28;20233;-71
2022/03/31 07:06:43;;;;;;;27.65;10.43;;;;;;;14.41;nan;93928.78;5063991;28;20761;-72
2022/03/31 07:09:10;;;;;;;30.02;12.35;;;;;;;14.46;nan;93917.34;5065088;28;20225;-71
2022/03/31 07:11:37;;;;;;;31.95;12.77;;;;;;;14.52;nan;93916.13;5064994;28;20213;-71
2022/03/31 07:14:05;;;;;;;32.50;9.38;;;;;;;14.44;nan;93903.03;5065559;28;20685;-71
2022/03/31 07:16:32;;;;;;;30.48;8.68;;;;;;;14.36;nan;93895.00;5064106;28;20206;-71
2022/03/31 07:19:01;;;;;;;30.25;8.07;;;;;;;14.41;nan;93898.13;5063801;28;20248;-71
2022/03/31 07:21:28;;;;;;;24.58;8.20;;;;;;;14.44;nan;93888.50;5063179;28;20198;-71
2022/03/31 07:23:56;;;;;;;22.05;8.43;;;;;;;14.77;nan;93902.50;5064303;28;20715;-71
2022/03/31 07:26:24;;;;;;;35.13;8.95;;;;;;;14.91;nan;93892.94;5068253;28;20688;-71
2022/03/31 07:28:51;;;;;;;25.77;8.30;;;;;;;15.00;nan;93880.47;5067778;28;20198;-71
2022/03/31 07:31:18;;;;;;;40.60;9.07;;;;;;;14.93;nan;93886.00;5067637;28;20202;-71
2022/03/31 07:33:45;;;;;;;28.20;7.82;;;;;;;15.04;nan;93899.78;5068381;28;20232;-71
2022/03/31 07:36:12;;;;;;;25.00;8.00;;;;;;;14.74;nan;93911.19;5067494;28;20275;-71
2022/03/31 07:38:39;;;;;;;26.98;7.15;;;;;;;14.71;nan;93903.72;5067894;28;20595;-71
2022/03/31 07:41:08;;;;;;;27.50;8.20;;;;;;;14.85;nan;93908.72;5067586;28;20201;-71
2022/03/31 07:43:35;;;;;;;25.60;8.07;;;;;;;14.66;nan;93892.16;5068750;28;20322;-71
2022/03/31 07:46:01;;;;;;;24.58;7.43;;;;;;;14.70;nan;93899.53;5067436;28;21703;-71
2022/03/31 07:48:28;;;;;;;31.35;8.35;;;;;;;14.72;nan;93884.91;5067856;28;20200;-72
2022/03/31 07:50:56;;;;;;;29.88;8.25;;;;;;;14.88;nan;93917.91;5066952;28;20279;-71
2022/03/31 07:53:23;;;;;;;36.13;11.25;;;;;;;15.02;nan;93915.25;5068512;28;20281;-71
2022/03/31 07:55:50;;;;;;;29.92;10.70;;;;;;;15.24;nan;93909.44;5067510;28;20205;-73
2022/03/31 07:58:18;;;;;;;33.20;8.95;;;;;;;15.41;nan;93913.38;5068648;28;20209;-71
2022/03/31 08:00:50;;;;;;;32.40;8.10;;;;;;;15.29;nan;93897.97;5065578;28;20263;-71
2022/03/31 08:03:17;;;;;;;26.77;8.35;;;;;;;15.20;nan;93872.19;5066883;28;20381;-72
2022/03/31 08:05:45;;;;;;;25.10;9.27;;;;;;;15.20;nan;93902.91;5066859;28;20226;-71
2022/03/31 08:08:12;;;;;;;24.73;8.65;;;;;;;15.48;nan;93883.88;5068026;28;20197;-71
2022/03/31 08:10:38;;;;;;;33.65;8.70;;;;;;;15.61;nan;93874.41;5066243;28;20750;-72
2022/03/31 08:13:06;;;;;;;23.17;8.77;;;;;;;15.83;nan;93876.25;5067941;28;20213;-71
2022/03/31 08:15:34;;;;;;;33.60;8.13;;;;;;;15.79;nan;93875.66;5065977;28;20255;-72
2022/03/31 08:18:01;;;;;;;29.08;8.88;;;;;;;15.84;nan;93894.03;5067634;28;20310;-72
2022/03/31 08:20:28;;;;;;;37.22;13.25;;;;;;;15.87;nan;93898.13;5066018;28;20202;-72
2022/03/31 08:22:56;;;;;;;31.55;8.98;;;;;;;15.96;nan;93877.78;5067517;28;20280;-73
2022/03/31 08:25:22;;;;;;;44.70;15.35;;;;;;;16.19;nan;93883.78;5066314;28;20237;-74
2022/03/31 08:27:49;;;;;;;35.88;10.68;;;;;;;16.17;nan;93880.50;5066948;28;20678;-71
2022/03/31 08:30:20;;;;;;;34.22;8.55;;;;;;;16.18;nan;93871.91;5066413;28;20209;-73
2022/03/31 08:32:48;;;;;;;26.27;6.75;;;;;;;16.15;nan;93851.63;5066960;28;20309;-70
2022/03/31 08:35:16;;;;;;;28.95;9.88;;;;;;;16.18;nan;93853.94;5066303;28;20225;-71
2022/03/31 08:37:43;;;;;;;30.35;9.77;;;;;;;16.21;nan;93858.84;5065615;28;20706;-70
2022/03/31 08:40:12;;;;;;;29.55;8.38;;;;;;;16.38;nan;93860.16;5065884;28;20263;-70
2022/03/31 08:42:40;;;;;;;25.23;6.70;;;;;;;16.45;nan;93842.56;5067483;28;20738;-70
2022/03/31 08:45:10;;;;;;;27.85;7.75;;;;;;;16.64;nan;93822.31;5066548;28;20225;-71
2022/03/31 08:47:39;;;;;;;30.77;8.52;;;;;;;16.67;nan;93840.03;5067042;28;20203;-71
2022/03/31 08:50:10;;;;;;;22.90;7.57;;;;;;;16.80;nan;93837.34;5065312;28;20212;-70
2022/03/31 08:52:37;;;;;;;24.25;6.85;;;;;;;16.92;nan;93828.69;5067479;28;20198;-72
2022/03/31 08:55:05;;;;;;;29.10;8.52;;;;;;;16.94;nan;93822.50;5065275;28;20750;-71
2022/03/31 08:57:40;;;;;;;44.10;9.55;;;;;;;17.06;nan;93854.13;5066206;28;21229;-72
2022/03/31 09:00:08;;;;;;;33.92;8.82;;;;;;;17.26;nan;93825.13;5065586;28;20238;-70
2022/03/31 09:02:35;;;;;;;31.58;10.05;;;;;;;17.36;nan;93827.75;5065821;28;20208;-71
2022/03/31 09:05:04;;;;;;;26.52;7.97;;;;;;;17.58;nan;93839.69;5065082;28;20383;-71
2022/03/31 09:07:33;;;;;;;31.05;8.23;;;;;;;17.76;nan;93840.03;5065749;28;21488;-70
2022/03/31 09:10:00;;;;;;;36.47;7.50;;;;;;;17.94;nan;93834.19;5065162;28;20198;-71
2022/03/31 09:12:37;;;;;;;25.40;8.35;;;;;;;17.84;nan;93837.63;5066482;28;20788;-71
2022/03/31 09:15:10;;;;;;;30.00;8.50;;;;;;;17.83;nan;93838.56;5066570;28;20230;-72
2022/03/31 09:17:37;;;;;;;34.08;7.28;;;;;;;17.82;nan;93821.50;5065780;28;20637;-71
2022/03/31 09:20:06;;;;;;;23.52;6.40;;;;;;;17.90;nan;93832.00;5064816;28;20684;-71
2022/03/31 09:22:44;;;;;;;25.00;7.80;;;;;;;17.90;nan;93834.56;5065893;28;20239;-71
2022/03/31 09:25:11;;;;;;;27.85;7.03;;;;;;;17.67;nan;93829.53;5066426;28;20241;-72
2022/03/31 09:27:38;;;;;;;25.60;5.65;;;;;;;17.59;nan;93842.13;5066334;28;20200;-72
2022/03/31 09:30:06;;;;;;;35.25;6.88;;;;;;;17.63;nan;93833.25;5064484;28;20197;-71
2022/03/31 09:32:33;;;;;;;22.77;5.57;;;;;;;17.89;nan;93833.75;5066024;28;20282;-71
2022/03/31 09:35:06;;;;;;;33.58;6.25;;;;;;;17.97;nan;93813.38;5065052;28;20626;-71
2022/03/31 09:37:34;;;;;;;30.42;5.25;;;;;;;18.26;nan;93805.03;5066179;28;20197;-71
2022/03/31 09:40:01;;;;;;;26.48;6.60;;;;;;;18.49;nan;93814.19;5065272;28;20247;-73
2022/03/31 09:42:28;;;;;;;33.70;5.95;;;;;;;18.68;nan;93806.56;5066843;28;20723;-71
2022/03/31 09:44:58;;;;;;;31.05;5.68;;;;;;;18.92;nan;93789.97;5063796;28;20296;-70
2022/03/31 09:47:26;;;;;;;20.80;5.80;;;;;;;18.80;nan;93807.31;5065504;28;20229;-70
2022/03/31 09:49:54;;;;;;;23.77;8.32;;;;;;;18.88;nan;93797.16;5064271;28;21178;-70
2022/03/31 09:52:21;;;;;;;28.35;6.40;;;;;;;19.14;nan;93809.53;5065485;28;20614;-71
2022/03/31 09:54:50;;;;;;;33.00;5.90;;;;;;;19.29;nan;93796.16;5063259;28;20294;-70
2022/03/31 09:57:21;;;;;;;22.40;5.75;;;;;;;19.37;nan;93795.44;5063906;28;20206;-70
2022/03/31 09:59:52;;;;;;;20.60;6.32;;;;;;;19.33;nan;93799.25;5062646;28;20198;-71
2022/03/31 10:02:20;;;;;;;19.92;5.72;;;;;;;19.50;nan;93803.78;5064745;28;20205;-71
2022/03/31 10:04:47;;;;;;;21.48;5.65;;;;;;;19.55;nan;93796.44;5062402;28;20318;-70
2022/03/31 10:07:14;;;;;;;57.72;15.43;;;;;;;19.75;nan;93793.88;5063738;28;20236;-70
2022/03/31 10:09:44;;;;;;;30.65;6.20;;;;;;;19.84;nan;93778.38;5060702;28;20210;-70
2022/03/31 10:12:18;;;;;;;33.38;6.43;;;;;;;19.99;nan;93792.47;5061400;28;20205;-72
2022/03/31 10:14:51;;;;;;;24.05;5.68;;;;;;;20.13;nan;93811.03;5061968;28;20728;-70
2022/03/31 10:17:19;;;;;;;21.83;6.15;;;;;;;19.85;nan;93777.41;5063140;28;20197;-71
2022/03/31 10:19:46;;;;;;;22.55;5.82;;;;;;;19.74;nan;93810.28;5061340;28;20194;-71
2022/03/31 10:24:41;;;;;;;22.20;5.75;;;;;;;19.85;nan;93802.38;5063009;28;20307;-70
2022/03/31 10:25:03;;;;;;;31.48;5.60;;;;;;;19.98;nan;93788.25;5061796;28;20939;-71
2022/03/31 10:27:33;;;;;;;31.52;5.93;;;;;;;19.96;nan;93790.16;5063150;28;20664;-71
2022/03/31 10:30:10;;;;;;;25.80;5.63;;;;;;;19.51;nan;93771.91;5062028;28;20279;-70
2022/03/31 10:32:37;;;;;;;22.05;5.97;;;;;;;19.51;nan;93766.75;5064555;28;20209;-70
2022/03/31 10:35:05;;;;;;;27.73;5.93;;;;;;;19.40;nan;93766.03;5063386;28;20229;-71
2022/03/31 10:37:35;;;;;;;20.45;5.53;;;;;;;19.31;nan;93767.66;5064444;28;20630;-71
2022/03/31 10:40:04;;;;;;;17.48;4.78;;;;;;;19.47;nan;93765.38;5063690;28;20202;-71
2022/03/31 10:42:32;;;;;;;31.85;5.93;;;;;;;19.67;nan;93774.75;5064115;28;20684;-71
2022/03/31 10:45:08;;;;;;;21.48;6.03;;;;;;;19.69;nan;93767.69;5062841;28;20339;-71
2022/03/31 10:47:36;;;;;;;37.60;6.18;;;;;;;19.36;nan;93753.41;5061301;28;20189;-71
2022/03/31 10:50:07;;;;;;;32.72;7.65;;;;;;;19.22;nan;93737.56;5062581;28;20200;-71
2022/03/31 10:52:34;;;;;;;24.80;5.40;;;;;;;19.33;nan;93719.38;5063545;28;20209;-70
2022/03/31 10:55:13;;;;;;;30.27;5.85;;;;;;;19.66;nan;93725.91;5064156;28;20229;-71
2022/03/31 10:57:43;;;;;;;36.05;6.30;;;;;;;19.67;nan;93738.66;5060488;28;20202;-70
2022/03/31 11:00:14;;;;;;;33.72;5.50;;;;;;;19.78;nan;93748.00;5062844;28;20255;-70
2022/03/31 11:02:43;;;;;;;34.20;6.35;;;;;;;19.95;nan;93756.78;5067696;28;20194;-70
2022/03/31 11:05:10;;;;;;;17.55;5.82;;;;;;;19.88;nan;93747.97;5077239;28;20226;-71
2022/03/31 11:07:37;;;;;;;34.30;5.22;;;;;;;20.13;nan;93744.78;5082496;28;20202;-71
2022/03/31 11:10:07;;;;;;;27.75;5.38;;;;;;;20.09;nan;93738.28;5065588;28;20226;-72
2022/03/31 11:12:35;;;;;;;28.65;5.60;;;;;;;19.87;nan;93743.78;5067466;28;20255;-72
2022/03/31 11:15:07;;;;;;;34.45;5.28;;;;;;;19.80;nan;93737.53;5068707;28;20213;-72
2022/03/31 11:17:34;;;;;;;21.38;5.30;;;;;;;19.88;nan;93724.78;5067097;28;20604;-71
2022/03/31 11:20:03;;;;;;;30.92;6.05;;;;;;;19.75;nan;93729.44;5073506;28;20198;-71
2022/03/31 11:22:31;;;;;;;22.50;5.13;;;;;;;19.90;nan;93720.28;5088461;28;20279;-70
2022/03/31 11:25:09;;;;;;;28.90;5.38;;;;;;;19.90;nan;93725.44;5085084;28;20226;-71
2022/03/31 11:27:37;;;;;;;20.75;6.80;;;;;;;19.78;nan;93745.44;5067961;28;20252;-72
2022/03/31 11:30:09;;;;;;;28.25;6.45;;;;;;;19.57;nan;93758.47;5068035;28;20267;-73
2022/03/31 11:32:36;;;;;;;28.58;7.35;;;;;;;19.54;nan;93743.28;5068881;28;20285;-71
2022/03/31 11:35:04;;;;;;;21.02;4.95;;;;;;;19.88;nan;93724.78;5089320;28;20640;-72
2022/03/31 11:37:31;;;;;;;25.80;6.38;;;;;;;19.90;nan;93733.19;5084780;28;20248;-71
2022/03/31 11:39:57;;;;;;;16.85;5.35;;;;;;;19.84;nan;93726.81;5071493;28;20194;-71
2022/03/31 11:42:24;;;;;;;27.02;4.90;;;;;;;20.01;nan;93725.28;5071353;28;20203;-72
2022/03/31 11:44:51;;;;;;;25.42;5.10;;;;;;;19.75;nan;93693.34;5070835;28;20226;-71
2022/03/31 11:47:20;;;;;;;30.40;4.43;;;;;;;19.60;nan;93704.06;5071428;28;20255;-72
2022/03/31 11:49:58;;;;;;;25.55;5.78;;;;;;;19.65;nan;93694.16;5070854;28;20599;-71